createdAt,value
2023-05-06T00:00:13.041Z,8.66
2023-05-06T00:03:03.618Z,8.65
2023-05-06T00:05:32.349Z,8.63
2023-05-06T00:08:01.362Z,8.62
2023-05-06T00:10:29.962Z,8.60
2023-05-06T00:12:58.549Z,8.61
2023-05-06T00:15:28.031Z,8.60
2023-05-06T00:17:57.973Z,8.61
2023-05-06T00:20:27.521Z,8.61
2023-05-06T00:22:56.237Z,8.62
2023-05-06T00:25:25.036Z,8.62
2023-05-06T00:27:54.043Z,8.63
2023-05-06T00:30:23.272Z,8.66
2023-05-06T00:32:52.088Z,8.68
2023-05-06T00:35:20.968Z,8.70
2023-05-06T00:37:58.756Z,8.70
2023-05-06T00:40:27.293Z,8.70
2023-05-06T00:42:56.002Z,8.70
2023-05-06T00:45:25.563Z,8.62
2023-05-06T00:47:54.693Z,8.60
2023-05-06T00:50:24.198Z,8.50
2023-05-06T00:52:54.772Z,8.38
2023-05-06T00:55:23.327Z,8.36
2023-05-06T00:57:54.418Z,8.31
2023-05-06T01:00:22.980Z,8.25
2023-05-06T01:02:52.883Z,8.24
2023-05-06T01:05:26.205Z,8.21
2023-05-06T01:08:17.023Z,8.16
2023-05-06T01:11:19.703Z,8.17
2023-05-06T01:14:02.386Z,8.21
2023-05-06T01:16:32.400Z,8.23
2023-05-06T01:19:01.609Z,8.25
2023-05-06T01:21:34.940Z,8.28
2023-05-06T01:24:03.828Z,8.29
2023-05-06T01:26:32.313Z,8.31
2023-05-06T01:29:02.523Z,8.29
2023-05-06T01:31:45.908Z,8.23
2023-05-06T01:34:21.390Z,8.14
2023-05-06T01:37:12.666Z,8.10
2023-05-06T01:39:43.308Z,7.98
2023-05-06T01:42:14.303Z,7.90
2023-05-06T01:44:44.142Z,7.91
2023-05-06T01:47:13.919Z,7.84
2023-05-06T01:49:43.070Z,7.85
2023-05-06T01:52:13.719Z,7.80
2023-05-06T01:54:42.248Z,7.75
2023-05-06T01:57:11.026Z,7.73
2023-05-06T01:59:39.622Z,7.75
2023-05-06T02:02:08.459Z,7.71
2023-05-06T02:04:37.194Z,7.71
2023-05-06T02:07:06.445Z,7.77
2023-05-06T02:09:35.023Z,7.74
2023-05-06T02:12:05.068Z,7.78
2023-05-06T02:18:03.887Z,7.69
2023-05-06T02:20:32.861Z,7.65
2023-05-06T02:23:01.739Z,7.67
2023-05-06T02:25:30.316Z,7.65
2023-05-06T02:27:58.933Z,7.57
2023-05-06T02:30:27.419Z,7.56
2023-05-06T02:32:57.678Z,7.44
2023-05-06T02:35:26.347Z,7.34
2023-05-06T02:37:54.871Z,7.34
2023-05-06T02:40:23.331Z,7.30
2023-05-06T02:42:51.983Z,7.29
2023-05-06T02:45:20.601Z,7.23
2023-05-06T02:47:49.169Z,7.27
2023-05-06T02:50:17.828Z,7.29
2023-05-06T02:52:46.486Z,7.30
2023-05-06T02:55:15.153Z,7.26
2023-05-06T02:57:43.732Z,7.23
2023-05-06T03:00:13.324Z,7.21
2023-05-06T03:02:41.987Z,7.21
2023-05-06T03:05:10.906Z,7.22
2023-05-06T03:07:39.779Z,7.20
2023-05-06T03:10:09.832Z,7.13
2023-05-06T03:12:39.434Z,7.06
2023-05-06T03:15:09.280Z,7.14
2023-05-06T03:17:38.756Z,7.20
2023-05-06T03:20:10.200Z,7.22
2023-05-06T03:22:41.464Z,7.25
2023-05-06T03:25:10.421Z,7.27
2023-05-06T03:27:40.092Z,7.30
2023-05-06T03:30:14.671Z,7.30
2023-05-06T03:32:43.949Z,7.22
2023-05-06T03:35:14.090Z,7.28
2023-05-06T03:37:43.679Z,7.33
2023-05-06T03:40:12.675Z,7.37
2023-05-06T03:42:41.327Z,7.45
2023-05-06T03:45:10.961Z,7.50
2023-05-06T03:47:40.188Z,7.56
2023-05-06T03:50:10.393Z,7.60
2023-05-06T03:52:39.767Z,7.73
2023-05-06T03:55:09.896Z,7.82
2023-05-06T03:57:39.339Z,7.88
2023-05-06T04:00:11.158Z,7.97
2023-05-06T04:02:45.790Z,8.07
2023-05-06T04:05:19.951Z,8.14
2023-05-06T04:07:49.004Z,8.19
2023-05-06T04:10:19.354Z,8.28
2023-05-06T04:12:50.123Z,8.39
2023-05-06T04:15:24.137Z,8.45
2023-05-06T04:17:52.923Z,8.56
2023-05-06T04:20:22.332Z,8.67
2023-05-06T04:22:51.254Z,8.75
2023-05-06T04:25:21.406Z,8.82
2023-05-06T04:27:49.939Z,8.92
2023-05-06T04:30:20.409Z,9.03
2023-05-06T04:32:49.634Z,9.13
2023-05-06T04:35:18.891Z,9.22
2023-05-06T04:37:49.132Z,9.34
2023-05-06T04:40:26.079Z,9.45
2023-05-06T04:42:55.426Z,9.52
2023-05-06T04:45:30.016Z,9.56
2023-05-06T04:47:58.975Z,9.67
2023-05-06T04:50:28.170Z,9.78
2023-05-06T04:52:57.410Z,9.91
2023-05-06T04:55:26.530Z,9.98
2023-05-06T04:57:55.225Z,10.13
2023-05-06T05:00:26.357Z,10.26
2023-05-06T05:02:55.564Z,10.40
2023-05-06T05:05:26.366Z,10.56
2023-05-06T05:07:56.746Z,10.70
2023-05-06T05:10:26.175Z,10.85
2023-05-06T05:12:55.285Z,10.96
2023-05-06T05:15:24.433Z,11.13
2023-05-06T05:17:53.957Z,11.26
2023-05-06T05:20:24.085Z,11.35
2023-05-06T05:22:53.017Z,11.45
2023-05-06T05:25:21.717Z,11.56
2023-05-06T05:27:50.966Z,11.67
2023-05-06T05:30:20.911Z,11.76
2023-05-06T05:32:49.640Z,11.85
2023-05-06T05:35:18.573Z,11.93
2023-05-06T05:37:47.698Z,11.99
2023-05-06T05:40:16.843Z,12.04
2023-05-06T05:42:45.655Z,12.11
2023-05-06T05:45:21.476Z,12.18
2023-05-06T05:47:50.431Z,12.22
2023-05-06T05:50:19.270Z,12.25
2023-05-06T05:52:48.514Z,12.31
2023-05-06T05:55:17.450Z,12.35
2023-05-06T05:57:47.411Z,12.40
2023-05-06T06:00:16.945Z,12.43
2023-05-06T06:02:48.207Z,12.49
2023-05-06T06:05:19.859Z,12.57
2023-05-06T06:07:48.419Z,12.63
2023-05-06T06:10:17.573Z,12.72
2023-05-06T06:12:48.068Z,12.80
2023-05-06T06:15:19.472Z,12.91
2023-05-06T06:17:48.293Z,12.99
2023-05-06T06:20:17.602Z,13.08
2023-05-06T06:22:46.223Z,13.19
2023-05-06T06:25:16.099Z,13.29
2023-05-06T06:27:44.646Z,13.33
2023-05-06T06:30:13.862Z,13.41
2023-05-06T06:32:54.080Z,13.50
2023-05-06T06:35:23.916Z,13.61
2023-05-06T06:37:52.481Z,13.69
2023-05-06T06:40:23.041Z,13.80
2023-05-06T06:42:51.607Z,13.89
2023-05-06T06:46:13.507Z,14.03
2023-05-06T06:48:42.167Z,14.09
2023-05-06T06:51:10.741Z,14.18
2023-05-06T06:53:40.075Z,14.26
2023-05-06T06:56:14.762Z,14.35
2023-05-06T06:58:43.778Z,14.42
2023-05-06T07:01:13.251Z,14.51
2023-05-06T07:03:41.941Z,14.59
2023-05-06T07:06:10.569Z,14.66
2023-05-06T07:08:39.480Z,14.72
2023-05-06T07:11:08.159Z,14.77
2023-05-06T07:13:37.337Z,14.83
2023-05-06T07:16:06.458Z,14.95
2023-05-06T07:18:35.009Z,15.06
2023-05-06T07:21:04.712Z,15.16
2023-05-06T07:23:33.380Z,15.23
2023-05-06T07:26:02.121Z,15.24
2023-05-06T07:28:30.812Z,15.25
2023-05-06T07:30:59.415Z,15.29
2023-05-06T07:33:28.148Z,15.38
2023-05-06T07:35:56.813Z,15.37
2023-05-06T07:38:25.350Z,15.37
2023-05-06T07:40:54.043Z,15.42
2023-05-06T07:43:23.227Z,15.43
2023-05-06T07:45:52.096Z,15.50
2023-05-06T07:48:20.913Z,15.59
2023-05-06T07:50:49.540Z,15.66
2023-05-06T07:53:18.186Z,15.72
2023-05-06T07:55:46.886Z,15.82
2023-05-06T07:58:15.558Z,15.91
2023-05-06T08:00:44.231Z,15.98
2023-05-06T08:03:13.061Z,16.03
2023-05-06T08:05:41.957Z,16.04
2023-05-06T08:08:10.998Z,16.07
2023-05-06T08:10:39.726Z,16.14
2023-05-06T08:13:08.296Z,16.19
2023-05-06T08:15:36.982Z,16.23
2023-05-06T08:18:21.040Z,16.22
2023-05-06T08:20:51.731Z,16.31
2023-05-06T08:23:21.019Z,16.43
2023-05-06T08:25:49.977Z,16.58
2023-05-06T08:28:18.758Z,16.65
2023-05-06T08:30:48.726Z,16.69
2023-05-06T08:33:17.540Z,16.74
2023-05-06T08:35:46.988Z,16.84
2023-05-06T08:38:15.753Z,16.90
2023-05-06T08:40:45.217Z,16.91
2023-05-06T08:43:14.878Z,16.92
2023-05-06T08:45:46.970Z,16.90
2023-05-06T08:48:15.673Z,16.90
2023-05-06T08:50:44.656Z,17.00
2023-05-06T08:53:14.282Z,17.09
2023-05-06T08:55:44.606Z,17.11
2023-05-06T08:58:17.016Z,17.16
2023-05-06T09:00:46.724Z,17.24
2023-05-06T09:03:16.175Z,17.31
2023-05-06T09:05:45.085Z,17.37
2023-05-06T09:08:14.788Z,17.46
2023-05-06T09:10:45.498Z,17.49
2023-05-06T09:13:17.136Z,17.53
2023-05-06T09:15:49.425Z,17.55
2023-05-06T09:18:18.076Z,17.65
2023-05-06T09:20:49.492Z,17.67
2023-05-06T09:23:19.269Z,17.68
2023-05-06T09:25:50.043Z,17.71
2023-05-06T09:28:18.795Z,17.79
2023-05-06T09:30:48.037Z,17.84
2023-05-06T09:33:16.959Z,17.93
2023-05-06T09:35:46.783Z,17.96
2023-05-06T09:38:15.534Z,17.90
2023-05-06T09:40:44.221Z,17.93
2023-05-06T09:43:13.334Z,18.02
2023-05-06T09:45:46.368Z,18.16
2023-05-06T09:48:16.077Z,18.20
2023-05-06T09:50:44.711Z,18.22
2023-05-06T09:53:15.337Z,18.28
2023-05-06T09:55:45.170Z,18.33
2023-05-06T09:58:15.022Z,18.41
2023-05-06T10:00:47.020Z,18.43
2023-05-06T10:03:16.859Z,18.41
2023-05-06T10:05:47.218Z,18.46
2023-05-06T10:08:19.167Z,18.47
2023-05-06T10:10:50.250Z,18.46
2023-05-06T10:13:21.672Z,18.40
2023-05-06T10:15:51.292Z,18.40
2023-05-06T10:18:21.964Z,18.40
2023-05-06T10:20:53.740Z,18.44
2023-05-06T10:23:25.160Z,18.50
2023-05-06T10:26:01.533Z,18.58
2023-05-06T10:28:31.446Z,18.52
2023-05-06T10:31:01.840Z,18.53
2023-05-06T10:33:31.511Z,18.63
2023-05-06T10:36:27.947Z,18.77
2023-05-06T10:39:00.833Z,18.81
2023-05-06T10:41:30.445Z,18.76
2023-05-06T10:44:00.141Z,18.69
2023-05-06T10:46:30.872Z,18.72
2023-05-06T10:49:11.639Z,18.77
2023-05-06T10:51:46.141Z,18.82
2023-05-06T10:54:23.766Z,18.89
2023-05-06T10:56:52.248Z,18.91
2023-05-06T10:59:31.557Z,18.93
2023-05-06T11:02:03.177Z,19.03
2023-05-06T11:04:32.456Z,18.97
2023-05-06T11:07:21.371Z,18.83
2023-05-06T11:10:06.423Z,18.86
2023-05-06T11:12:49.616Z,18.93
2023-05-06T11:15:27.803Z,19.06
2023-05-06T11:17:57.178Z,19.15
2023-05-06T11:20:26.829Z,19.23
2023-05-06T11:22:55.500Z,19.33
2023-05-06T11:25:43.687Z,19.42
2023-05-06T11:28:14.019Z,19.56
2023-05-06T11:30:53.808Z,19.77
2023-05-06T11:33:26.307Z,19.95
2023-05-06T11:35:54.863Z,20.09
2023-05-06T11:38:23.759Z,20.00
2023-05-06T11:40:52.448Z,19.97
2023-05-06T11:43:21.022Z,20.11
2023-05-06T11:45:50.836Z,20.06
2023-05-06T11:48:19.420Z,20.04
2023-05-06T11:50:49.966Z,20.06
2023-05-06T11:53:24.648Z,19.85
2023-05-06T11:55:54.060Z,19.80
2023-05-06T11:58:30.533Z,19.86
2023-05-06T12:01:01.715Z,19.97
2023-05-06T12:03:33.155Z,20.16
2023-05-06T12:06:03.383Z,20.35
2023-05-06T12:08:37.104Z,20.44
2023-05-06T12:11:08.695Z,20.40
2023-05-06T12:13:37.941Z,20.43
2023-05-06T12:16:08.627Z,20.42
2023-05-06T12:18:37.480Z,20.27
2023-05-06T12:21:07.559Z,20.21
2023-05-06T12:23:36.292Z,20.08
2023-05-06T12:26:08.613Z,20.06
2023-05-06T12:28:37.548Z,20.08
2023-05-06T12:31:23.536Z,20.14
2023-05-06T12:33:53.304Z,20.01
2023-05-06T12:36:23.115Z,19.94
2023-05-06T12:38:56.463Z,19.99
2023-05-06T12:41:43.568Z,20.01
2023-05-06T12:44:40.588Z,20.02
2023-05-06T12:47:20.227Z,20.20
2023-05-06T12:49:55.555Z,20.33
2023-05-06T12:52:27.682Z,20.38
2023-05-06T12:54:57.757Z,20.38
2023-05-06T12:57:26.504Z,20.38
2023-05-06T12:59:56.480Z,20.41
2023-05-06T13:02:26.703Z,20.44
2023-05-06T13:04:55.422Z,20.31
2023-05-06T13:07:24.354Z,20.26
2023-05-06T13:09:53.269Z,20.34
2023-05-06T13:12:21.768Z,20.46
2023-05-06T13:14:50.309Z,20.62
2023-05-06T13:17:19.069Z,20.68
2023-05-06T13:19:47.870Z,20.75
2023-05-06T13:25:28.150Z,21.26
2023-05-06T13:27:56.998Z,21.35
2023-05-06T13:30:28.035Z,21.19
2023-05-06T13:32:59.408Z,20.89
2023-05-06T13:35:27.836Z,20.60
2023-05-06T13:38:01.887Z,20.47
2023-05-06T13:40:31.445Z,20.40
2023-05-06T13:43:00.305Z,20.35
2023-05-06T13:45:29.274Z,20.56
2023-05-06T13:47:58.395Z,20.65
2023-05-06T13:50:35.763Z,20.76
2023-05-06T13:53:07.555Z,20.78
2023-05-06T13:55:41.177Z,20.72
2023-05-06T13:58:18.036Z,20.63
2023-05-06T14:00:50.112Z,20.64
2023-05-06T14:03:21.788Z,20.66
2023-05-06T14:05:55.123Z,20.65
2023-05-06T14:08:24.347Z,20.74
2023-05-06T14:10:53.350Z,20.80
2023-05-06T14:13:22.069Z,20.91
2023-05-06T14:15:52.753Z,20.92
2023-05-06T14:18:23.664Z,20.94
2023-05-06T14:20:54.916Z,20.95
2023-05-06T14:23:23.786Z,21.03
2023-05-06T14:25:54.728Z,21.24
2023-05-06T14:28:24.053Z,21.39
2023-05-06T14:30:53.339Z,21.48
2023-05-06T14:33:23.624Z,21.62
2023-05-06T14:35:53.558Z,21.69
2023-05-06T14:38:25.715Z,21.53
2023-05-06T14:40:59.300Z,21.25
2023-05-06T14:43:29.165Z,20.89
2023-05-06T14:46:00.476Z,20.69
2023-05-06T14:48:29.888Z,20.42
2023-05-06T14:50:59.856Z,20.23
2023-05-06T14:53:28.828Z,20.10
2023-05-06T14:55:57.645Z,20.14
2023-05-06T14:58:27.063Z,20.11
2023-05-06T15:00:56.316Z,20.07
2023-05-06T15:03:25.305Z,19.99
2023-05-06T15:05:55.124Z,19.91
2023-05-06T15:08:25.527Z,19.84
2023-05-06T15:10:55.123Z,19.84
2023-05-06T15:13:31.074Z,19.83
2023-05-06T15:16:09.085Z,19.91
2023-05-06T15:18:43.624Z,20.10
2023-05-06T15:21:16.223Z,20.26
2023-05-06T15:23:48.248Z,20.50
2023-05-06T15:26:20.458Z,20.90
2023-05-06T15:28:49.347Z,21.12
2023-05-06T15:31:20.513Z,21.23
2023-05-06T15:33:49.653Z,21.49
2023-05-06T15:36:20.046Z,21.65
2023-05-06T15:39:00.137Z,22.05
2023-05-06T15:41:35.384Z,22.33
2023-05-06T15:44:06.038Z,22.63
2023-05-06T15:46:35.172Z,22.55
2023-05-06T15:49:26.163Z,22.54
2023-05-06T15:51:53.626Z,22.71
2023-05-06T15:54:27.086Z,22.53
2023-05-06T15:57:04.858Z,22.51
2023-05-06T15:59:35.296Z,22.30
2023-05-06T16:04:37.921Z,22.37
2023-05-06T16:07:08.011Z,22.01
2023-05-06T16:09:37.233Z,21.99
2023-05-06T16:12:07.201Z,21.91
2023-05-06T16:14:38.998Z,21.72
2023-05-06T16:17:07.851Z,21.85
2023-05-06T16:19:37.374Z,22.06
2023-05-06T16:22:07.403Z,22.07
2023-05-06T16:24:37.096Z,21.95
2023-05-06T16:27:06.358Z,21.90
2023-05-06T16:29:38.237Z,21.83
2023-05-06T16:32:09.470Z,21.61
2023-05-06T16:34:40.343Z,21.28
2023-05-06T16:37:11.551Z,20.99
2023-05-06T16:39:49.299Z,20.85
2023-05-06T16:42:18.249Z,20.78
2023-05-06T16:44:50.512Z,20.86
2023-05-06T16:47:24.624Z,20.60
2023-05-06T16:49:53.947Z,20.27
2023-05-06T16:52:25.140Z,20.07
2023-05-06T16:55:01.860Z,19.90
2023-05-06T16:57:34.657Z,19.86
2023-05-06T17:00:08.111Z,19.78
2023-05-06T17:02:39.830Z,19.55
2023-05-06T17:05:10.681Z,19.22
2023-05-06T17:07:41.829Z,18.88
2023-05-06T17:10:13.442Z,18.55
2023-05-06T17:12:50.167Z,18.36
2023-05-06T17:15:19.094Z,18.15
2023-05-06T17:17:48.467Z,17.94
2023-05-06T17:20:20.516Z,17.78
2023-05-06T17:22:52.969Z,17.64
2023-05-06T17:25:21.717Z,17.50
2023-05-06T17:27:50.660Z,17.39
2023-05-06T17:30:21.039Z,17.26
2023-05-06T17:32:50.054Z,17.16
2023-05-06T17:35:20.447Z,17.05
2023-05-06T17:37:49.000Z,16.95
2023-05-06T17:40:17.956Z,16.88
2023-05-06T17:42:46.582Z,16.78
2023-05-06T17:45:17.781Z,16.71
2023-05-06T17:47:46.586Z,16.61
2023-05-06T17:50:15.298Z,16.54
2023-05-06T17:52:44.299Z,16.49
2023-05-06T17:55:17.076Z,16.42
2023-05-06T17:57:46.593Z,16.35
2023-05-06T18:00:17.093Z,16.28
2023-05-06T18:02:46.459Z,16.20
2023-05-06T18:05:16.521Z,16.13
2023-05-06T18:07:45.523Z,16.05
2023-05-06T18:10:14.417Z,15.98
2023-05-06T18:12:48.191Z,15.93
2023-05-06T18:15:16.812Z,15.89
2023-05-06T18:17:46.229Z,15.82
2023-05-06T18:20:18.882Z,15.77
2023-05-06T18:22:47.841Z,15.69
2023-05-06T18:25:16.727Z,15.63
2023-05-06T18:27:45.367Z,15.56
2023-05-06T18:30:18.483Z,15.51
2023-05-06T18:32:49.337Z,15.47
2023-05-06T18:35:19.775Z,15.38
2023-05-06T18:37:48.280Z,15.32
2023-05-06T18:40:18.208Z,15.25
2023-05-06T18:42:49.284Z,15.17
2023-05-06T18:45:18.224Z,15.07
2023-05-06T18:47:47.194Z,14.98
2023-05-06T18:50:16.740Z,14.90
2023-05-06T18:52:45.345Z,14.83
2023-05-06T18:55:13.822Z,14.77
2023-05-06T18:57:42.855Z,14.74
2023-05-06T19:00:13.745Z,14.70
2023-05-06T19:02:42.298Z,14.67
2023-05-06T19:05:12.186Z,14.63
2023-05-06T19:07:41.721Z,14.62
2023-05-06T19:10:10.869Z,14.58
2023-05-06T19:12:41.468Z,14.56
2023-05-06T19:15:12.749Z,14.52
2023-05-06T19:17:41.803Z,14.48
2023-05-06T19:20:12.107Z,14.42
2023-05-06T19:22:41.673Z,14.40
2023-05-06T19:25:27.871Z,14.38
2023-05-06T19:27:56.913Z,14.34
2023-05-06T19:30:25.954Z,14.32
2023-05-06T19:32:55.542Z,14.30
2023-05-06T19:35:25.985Z,14.29
2023-05-06T19:37:54.671Z,14.29
2023-05-06T19:40:23.239Z,14.27
2023-05-06T19:42:52.214Z,14.27
2023-05-06T19:45:20.929Z,14.28
2023-05-06T19:47:52.657Z,14.25
2023-05-06T19:50:21.615Z,14.25
2023-05-06T19:52:50.251Z,14.26
2023-05-06T19:55:19.050Z,14.24
2023-05-06T19:57:48.060Z,14.23
2023-05-06T20:00:20.738Z,14.18
2023-05-06T20:02:49.500Z,14.18
2023-05-06T20:05:18.609Z,14.17
2023-05-06T20:07:47.546Z,14.16
2023-05-06T20:10:16.717Z,14.12
2023-05-06T20:12:45.695Z,14.11
2023-05-06T20:15:14.263Z,14.05
2023-05-06T20:17:43.001Z,14.03
2023-05-06T20:20:11.992Z,14.01
2023-05-06T20:22:41.575Z,13.98
2023-05-06T20:25:18.915Z,13.96
2023-05-06T20:27:47.450Z,13.94
2023-05-06T20:30:16.128Z,13.89
2023-05-06T20:32:48.271Z,13.86
2023-05-06T20:35:17.865Z,13.83
2023-05-06T20:37:46.984Z,13.81
2023-05-06T20:40:16.013Z,13.79
2023-05-06T20:42:44.525Z,13.76
2023-05-06T20:45:13.530Z,13.70
2023-05-06T20:47:42.821Z,13.67
2023-05-06T20:53:48.643Z,13.63
2023-05-06T20:56:23.339Z,13.55
2023-05-06T20:58:56.356Z,13.53
2023-05-06T21:01:26.114Z,13.50
2023-05-06T21:03:54.635Z,13.46
2023-05-06T21:06:23.291Z,13.43
2023-05-06T21:08:52.167Z,13.43
2023-05-06T21:11:21.188Z,13.42
2023-05-06T21:13:50.193Z,13.39
2023-05-06T21:16:19.164Z,13.36
2023-05-06T21:18:49.688Z,13.34
2023-05-06T21:21:20.681Z,13.31
2023-05-06T21:23:49.261Z,13.29
2023-05-06T21:26:18.398Z,13.29
2023-05-06T21:28:51.374Z,13.29
2023-05-06T21:31:22.526Z,13.29
2023-05-06T21:33:55.498Z,13.29
2023-05-06T21:36:24.393Z,13.27
2023-05-06T21:39:12.160Z,13.25
2023-05-06T21:41:41.033Z,13.27
2023-05-06T21:44:10.407Z,13.25
2023-05-06T21:46:39.214Z,13.24
2023-05-06T21:49:07.805Z,13.22
2023-05-06T21:51:36.917Z,13.27
2023-05-06T21:54:05.511Z,13.29
2023-05-06T21:56:34.077Z,13.31
2023-05-06T21:59:02.567Z,13.29
2023-05-06T22:01:32.271Z,13.29
2023-05-06T22:04:01.004Z,13.28
2023-05-06T22:06:29.639Z,13.31
2023-05-06T22:08:58.112Z,13.29
2023-05-06T22:11:26.699Z,13.28
2023-05-06T22:13:55.152Z,13.25
2023-05-06T22:16:23.747Z,13.22
2023-05-06T22:18:53.036Z,13.20
2023-05-06T22:21:22.024Z,13.17
2023-05-06T22:23:50.450Z,13.13
2023-05-06T22:26:18.942Z,13.08
2023-05-06T22:28:47.929Z,13.08
2023-05-06T22:31:16.657Z,13.02
2023-05-06T22:33:45.175Z,13.00
2023-05-06T22:36:14.359Z,12.99
2023-05-06T22:38:43.020Z,12.98
2023-05-06T22:41:11.568Z,12.95
2023-05-06T22:43:40.144Z,12.90
2023-05-06T22:46:08.823Z,12.86
2023-05-06T22:48:37.518Z,12.87
2023-05-06T22:51:06.691Z,12.87
2023-05-06T22:53:35.274Z,12.84
2023-05-06T22:56:03.936Z,12.80
2023-05-06T22:58:32.481Z,12.75
2023-05-06T23:01:02.026Z,12.70
2023-05-06T23:03:30.692Z,12.66
2023-05-06T23:05:59.225Z,12.62
2023-05-06T23:08:27.820Z,12.59
2023-05-06T23:10:56.295Z,12.54
2023-05-06T23:13:24.867Z,12.53
2023-05-06T23:15:53.387Z,12.49
2023-05-06T23:18:22.036Z,12.42
2023-05-06T23:20:50.584Z,12.37
2023-05-06T23:23:19.095Z,12.31
2023-05-06T23:25:47.719Z,12.29
2023-05-06T23:28:16.197Z,12.24
2023-05-06T23:30:45.122Z,12.22
2023-05-06T23:33:13.776Z,12.18
2023-05-06T23:35:42.400Z,12.17
2023-05-06T23:38:10.978Z,12.14
2023-05-06T23:40:39.633Z,12.15
2023-05-06T23:43:09.981Z,12.14
2023-05-06T23:45:38.587Z,12.14
2023-05-06T23:48:07.423Z,12.10
2023-05-06T23:50:36.190Z,12.08
2023-05-06T23:53:04.617Z,12.04
2023-05-06T23:55:33.455Z,12.02
2023-05-06T23:58:01.991Z,11.98
